aviador You're here:

YSDU Decoded Metar

DUBBO in AUSTRALIA
Report Time2017-08-18 16:00:00
UTC Time2017-08-18 16:25:39
Flight Rules vfr VFR
Wind260° at 11 kt
W.Decomp.*RWY 23: 10.3 kt HW 3.8 kt RCW
RWY 29: 8.4 kt HW 7.1 kt LCW
W.Rank260° ranks 27
Current wind is above 260° avg. (8.7)
Visibility9999 m
Phenomena:N/A
Clouds:N/A
Expected CloudBase > 1,600 ft AGL from Temp-Dew spread
CeilingNone
Temp05°C (ISA -8)
Dew Point01°C (76% RH)
AAT-0.8°C
QNH1020 hPa
Density Alt-233 ft
Elevation902 ft
Report Wrong Elevation
Raw Report
YSDU 181600Z AUTO 26011KT 9999 // NCD 05/01 Q1020=

Extra information for YSDU:More info

Metar Taf Metar & Taf Last 4 Metars F.Rules Stats Wind Profile Meteogram Temp Stats Airport Information Weather charts Add Link Nearby VenuesMetar ALERT Operation Metar Decoded Social comments